sensor_id;sensor_type;location;lat;lon;timestamp;P1;durP1;ratioP1;P2;durP2;ratioP2
82410;SDS011;76378;60.040;30.218;2024-03-08T00:01:28;2.42;;;1.52;;
82410;SDS011;76378;60.040;30.218;2024-03-08T00:02:28;3.40;;;1.70;;
82410;SDS011;76378;60.040;30.218;2024-03-08T00:03:29;3.05;;;1.67;;
82410;SDS011;76378;60.040;30.218;2024-03-08T00:05:31;2.92;;;1.55;;
82410;SDS011;76378;60.040;30.218;2024-03-08T00:06:32;3.15;;;1.67;;
82410;SDS011;76378;60.040;30.218;2024-03-08T00:07:32;3.30;;;1.70;;
82410;SDS011;76378;60.040;30.218;2024-03-08T00:08:33;3.45;;;1.80;;
82410;SDS011;76378;60.040;30.218;2024-03-08T00:09:34;3.20;;;1.77;;
82410;SDS011;76378;60.040;30.218;2024-03-08T00:10:34;3.97;;;1.90;;
82410;SDS011;76378;60.040;30.218;2024-03-08T00:11:35;3.72;;;2.13;;
82410;SDS011;76378;60.040;30.218;2024-03-08T00:12:35;3.03;;;1.60;;
82410;SDS011;76378;60.040;30.218;2024-03-08T00:13:36;3.78;;;2.00;;
82410;SDS011;76378;60.040;30.218;2024-03-08T00:14:36;4.40;;;2.00;;
82410;SDS011;76378;60.040;30.218;2024-03-08T00:15:37;3.35;;;1.80;;
82410;SDS011;76378;60.040;30.218;2024-03-08T00:16:38;3.40;;;1.90;;
82410;SDS011;76378;60.040;30.218;2024-03-08T00:17:38;3.50;;;1.90;;
82410;SDS011;76378;60.040;30.218;2024-03-08T00:18:40;3.45;;;1.98;;
82410;SDS011;76378;60.040;30.218;2024-03-08T00:19:41;3.33;;;1.88;;
82410;SDS011;76378;60.040;30.218;2024-03-08T00:20:41;2.97;;;1.58;;
82410;SDS011;76378;60.040;30.218;2024-03-08T00:21:44;4.22;;;2.25;;
82410;SDS011;76378;60.040;30.218;2024-03-08T00:22:45;3.45;;;1.80;;
82410;SDS011;76378;60.040;30.218;2024-03-08T00:23:46;3.33;;;1.70;;
82410;SDS011;76378;60.040;30.218;2024-03-08T00:24:47;4.57;;;2.10;;
82410;SDS011;76378;60.040;30.218;2024-03-08T00:25:49;3.35;;;1.85;;
82410;SDS011;76378;60.040;30.218;2024-03-08T00:26:50;5.07;;;1.92;;
82410;SDS011;76378;60.040;30.218;2024-03-08T00:27:50;3.72;;;1.58;;
82410;SDS011;76378;60.040;30.218;2024-03-08T00:28:51;4.47;;;1.63;;
82410;SDS011;76378;60.040;30.218;2024-03-08T00:29:51;3.60;;;1.80;;
82410;SDS011;76378;60.040;30.218;2024-03-08T00:30:52;3.75;;;1.85;;
82410;SDS011;76378;60.040;30.218;2024-03-08T00:31:53;4.65;;;2.10;;
82410;SDS011;76378;60.040;30.218;2024-03-08T00:32:53;3.80;;;2.08;;
82410;SDS011;76378;60.040;30.218;2024-03-08T00:33:54;4.45;;;1.77;;
82410;SDS011;76378;60.040;30.218;2024-03-08T00:34:54;2.83;;;1.50;;
82410;SDS011;76378;60.040;30.218;2024-03-08T00:35:55;3.65;;;1.88;;
82410;SDS011;76378;60.040;30.218;2024-03-08T00:36:55;4.53;;;1.98;;
82410;SDS011;76378;60.040;30.218;2024-03-08T00:37:56;4.20;;;1.80;;
82410;SDS011;76378;60.040;30.218;2024-03-08T00:38:56;5.18;;;2.10;;
82410;SDS011;76378;60.040;30.218;2024-03-08T00:39:57;2.95;;;1.77;;
82410;SDS011;76378;60.040;30.218;2024-03-08T00:40:58;3.17;;;1.80;;
82410;SDS011;76378;60.040;30.218;2024-03-08T00:41:58;3.65;;;2.08;;
82410;SDS011;76378;60.040;30.218;2024-03-08T00:42:59;3.35;;;1.80;;
82410;SDS011;76378;60.040;30.218;2024-03-08T00:43:59;4.20;;;1.90;;
82410;SDS011;76378;60.040;30.218;2024-03-08T00:45:00;3.60;;;1.90;;
82410;SDS011;76378;60.040;30.218;2024-03-08T00:46:01;2.50;;;1.60;;
82410;SDS011;76378;60.040;30.218;2024-03-08T00:47:02;2.90;;;1.58;;
82410;SDS011;76378;60.040;30.218;2024-03-08T00:48:03;3.28;;;1.85;;
82410;SDS011;76378;60.040;30.218;2024-03-08T00:49:05;3.33;;;1.75;;
82410;SDS011;76378;60.040;30.218;2024-03-08T00:50:06;4.38;;;1.85;;
82410;SDS011;76378;60.040;30.218;2024-03-08T00:51:08;3.25;;;1.90;;
82410;SDS011;76378;60.040;30.218;2024-03-08T00:52:09;4.05;;;1.77;;
82410;SDS011;76378;60.040;30.218;2024-03-08T00:53:09;5.07;;;2.13;;
82410;SDS011;76378;60.040;30.218;2024-03-08T00:54:11;3.65;;;1.80;;
82410;SDS011;76378;60.040;30.218;2024-03-08T00:55:11;3.47;;;1.90;;
82410;SDS011;76378;60.040;30.218;2024-03-08T00:56:12;3.50;;;1.80;;
82410;SDS011;76378;60.040;30.218;2024-03-08T00:57:13;3.13;;;1.88;;
82410;SDS011;76378;60.040;30.218;2024-03-08T00:58:13;3.40;;;1.67;;
82410;SDS011;76378;60.040;30.218;2024-03-08T00:59:14;3.78;;;1.90;;
82410;SDS011;76378;60.040;30.218;2024-03-08T01:00:14;3.75;;;1.92;;
82410;SDS011;76378;60.040;30.218;2024-03-08T01:01:15;3.70;;;1.90;;
82410;SDS011;76378;60.040;30.218;2024-03-08T01:02:16;3.42;;;1.98;;
82410;SDS011;76378;60.040;30.218;2024-03-08T01:03:19;5.97;;;2.03;;
82410;SDS011;76378;60.040;30.218;2024-03-08T01:04:19;4.43;;;2.08;;
82410;SDS011;76378;60.040;30.218;2024-03-08T01:05:21;2.88;;;1.75;;
82410;SDS011;76378;60.040;30.218;2024-03-08T01:06:24;4.10;;;1.60;;
82410;SDS011;76378;60.040;30.218;2024-03-08T01:07:25;3.78;;;2.08;;
82410;SDS011;76378;60.040;30.218;2024-03-08T01:08:25;3.30;;;1.88;;
82410;SDS011;76378;60.040;30.218;2024-03-08T01:09:26;4.07;;;1.90;;
82410;SDS011;76378;60.040;30.218;2024-03-08T01:10:27;5.50;;;1.92;;
82410;SDS011;76378;60.040;30.218;2024-03-08T01:11:28;3.38;;;1.73;;
82410;SDS011;76378;60.040;30.218;2024-03-08T01:12:28;4.05;;;2.25;;
82410;SDS011;76378;60.040;30.218;2024-03-08T01:13:29;4.57;;;2.30;;
82410;SDS011;76378;60.040;30.218;2024-03-08T01:14:30;4.05;;;2.15;;
82410;SDS011;76378;60.040;30.218;2024-03-08T01:15:31;3.80;;;1.73;;
82410;SDS011;76378;60.040;30.218;2024-03-08T01:16:31;3.35;;;1.90;;
82410;SDS011;76378;60.040;30.218;2024-03-08T01:17:33;3.67;;;1.85;;
82410;SDS011;76378;60.040;30.218;2024-03-08T01:18:34;2.72;;;1.77;;
82410;SDS011;76378;60.040;30.218;2024-03-08T01:19:34;4.35;;;1.77;;
82410;SDS011;76378;60.040;30.218;2024-03-08T01:20:35;2.97;;;2.30;;
82410;SDS011;76378;60.040;30.218;2024-03-08T01:21:36;3.00;;;1.60;;
82410;SDS011;76378;60.040;30.218;2024-03-08T01:22:36;3.33;;;1.70;;
82410;SDS011;76378;60.040;30.218;2024-03-08T01:23:37;5.05;;;1.60;;
82410;SDS011;76378;60.040;30.218;2024-03-08T01:24:37;3.75;;;1.75;;
82410;SDS011;76378;60.040;30.218;2024-03-08T01:25:38;5.55;;;2.00;;
82410;SDS011;76378;60.040;30.218;2024-03-08T01:26:39;4.10;;;2.05;;
82410;SDS011;76378;60.040;30.218;2024-03-08T01:27:39;5.30;;;2.13;;
82410;SDS011;76378;60.040;30.218;2024-03-08T01:28:40;3.55;;;1.85;;
82410;SDS011;76378;60.040;30.218;2024-03-08T01:29:41;2.67;;;1.67;;
82410;SDS011;76378;60.040;30.218;2024-03-08T01:30:42;3.67;;;1.85;;
82410;SDS011;76378;60.040;30.218;2024-03-08T01:31:43;2.90;;;1.70;;
82410;SDS011;76378;60.040;30.218;2024-03-08T01:32:43;3.20;;;1.92;;
82410;SDS011;76378;60.040;30.218;2024-03-08T01:33:44;3.17;;;1.75;;
82410;SDS011;76378;60.040;30.218;2024-03-08T01:34:44;3.00;;;1.80;;
82410;SDS011;76378;60.040;30.218;2024-03-08T01:35:45;3.22;;;1.80;;
82410;SDS011;76378;60.040;30.218;2024-03-08T01:36:45;3.13;;;1.80;;
82410;SDS011;76378;60.040;30.218;2024-03-08T01:37:46;4.63;;;1.70;;
82410;SDS011;76378;60.040;30.218;2024-03-08T01:38:47;3.88;;;1.80;;
82410;SDS011;76378;60.040;30.218;2024-03-08T01:39:48;3.70;;;2.08;;
82410;SDS011;76378;60.040;30.218;2024-03-08T01:40:49;4.90;;;2.00;;
82410;SDS011;76378;60.040;30.218;2024-03-08T01:41:50;4.05;;;2.20;;
82410;SDS011;76378;60.040;30.218;2024-03-08T01:42:50;4.00;;;1.83;;
82410;SDS011;76378;60.040;30.218;2024-03-08T01:43:51;4.63;;;2.17;;
82410;SDS011;76378;60.040;30.218;2024-03-08T01:44:53;3.75;;;1.60;;
82410;SDS011;76378;60.040;30.218;2024-03-08T01:45:55;4.25;;;1.80;;
82410;SDS011;76378;60.040;30.218;2024-03-08T01:46:58;5.43;;;1.98;;
82410;SDS011;76378;60.040;30.218;2024-03-08T01:47:59;4.93;;;2.10;;
82410;SDS011;76378;60.040;30.218;2024-03-08T01:49:00;4.68;;;2.25;;
82410;SDS011;76378;60.040;30.218;2024-03-08T01:50:01;4.20;;;1.70;;
82410;SDS011;76378;60.040;30.218;2024-03-08T01:51:03;2.83;;;1.70;;
82410;SDS011;76378;60.040;30.218;2024-03-08T01:52:05;3.42;;;1.52;;
82410;SDS011;76378;60.040;30.218;2024-03-08T01:53:07;3.42;;;1.77;;
82410;SDS011;76378;60.040;30.218;2024-03-08T01:54:10;4.40;;;2.10;;
82410;SDS011;76378;60.040;30.218;2024-03-08T01:55:11;3.00;;;1.63;;
82410;SDS011;76378;60.040;30.218;2024-03-08T01:56:14;3.42;;;1.80;;
82410;SDS011;76378;60.040;30.218;2024-03-08T01:57:15;3.03;;;1.67;;
82410;SDS011;76378;60.040;30.218;2024-03-08T01:58:15;4.60;;;1.83;;
82410;SDS011;76378;60.040;30.218;2024-03-08T01:59:16;4.07;;;1.75;;
82410;SDS011;76378;60.040;30.218;2024-03-08T02:00:18;4.78;;;2.08;;
82410;SDS011;76378;60.040;30.218;2024-03-08T02:01:20;2.70;;;1.52;;
82410;SDS011;76378;60.040;30.218;2024-03-08T02:02:21;3.38;;;1.80;;
82410;SDS011;76378;60.040;30.218;2024-03-08T02:03:22;3.92;;;1.90;;
82410;SDS011;76378;60.040;30.218;2024-03-08T02:04:23;3.03;;;1.77;;
82410;SDS011;76378;60.040;30.218;2024-03-08T02:05:24;3.90;;;1.90;;
82410;SDS011;76378;60.040;30.218;2024-03-08T02:07:26;4.03;;;1.88;;
82410;SDS011;76378;60.040;30.218;2024-03-08T02:08:27;3.40;;;2.13;;
82410;SDS011;76378;60.040;30.218;2024-03-08T02:09:27;2.63;;;1.63;;
82410;SDS011;76378;60.040;30.218;2024-03-08T02:10:28;3.30;;;1.67;;
82410;SDS011;76378;60.040;30.218;2024-03-08T02:11:29;2.60;;;1.50;;
82410;SDS011;76378;60.040;30.218;2024-03-08T02:12:29;3.42;;;1.85;;
82410;SDS011;76378;60.040;30.218;2024-03-08T02:13:30;2.50;;;1.67;;
82410;SDS011;76378;60.040;30.218;2024-03-08T02:14:30;4.32;;;1.55;;
82410;SDS011;76378;60.040;30.218;2024-03-08T02:16:50;4.20;;;1.75;;
82410;SDS011;76378;60.040;30.218;2024-03-08T02:17:51;3.38;;;1.80;;
82410;SDS011;76378;60.040;30.218;2024-03-08T02:18:53;3.65;;;1.77;;
82410;SDS011;76378;60.040;30.218;2024-03-08T02:19:54;2.63;;;1.75;;
82410;SDS011;76378;60.040;30.218;2024-03-08T02:21:01;3.00;;;1.60;;
82410;SDS011;76378;60.040;30.218;2024-03-08T02:22:03;2.88;;;1.60;;
82410;SDS011;76378;60.040;30.218;2024-03-08T02:23:04;3.60;;;1.52;;
82410;SDS011;76378;60.040;30.218;2024-03-08T02:24:05;2.92;;;1.60;;
82410;SDS011;76378;60.040;30.218;2024-03-08T02:25:06;3.13;;;1.65;;
82410;SDS011;76378;60.040;30.218;2024-03-08T02:26:08;4.80;;;1.70;;
82410;SDS011;76378;60.040;30.218;2024-03-08T02:27:09;3.55;;;1.95;;
82410;SDS011;76378;60.040;30.218;2024-03-08T02:28:12;2.58;;;1.55;;
82410;SDS011;76378;60.040;30.218;2024-03-08T02:30:14;2.47;;;1.42;;
82410;SDS011;76378;60.040;30.218;2024-03-08T02:31:17;3.20;;;1.77;;
82410;SDS011;76378;60.040;30.218;2024-03-08T02:32:18;3.53;;;1.65;;
82410;SDS011;76378;60.040;30.218;2024-03-08T02:33:18;2.92;;;1.70;;
82410;SDS011;76378;60.040;30.218;2024-03-08T02:34:19;4.22;;;1.92;;
82410;SDS011;76378;60.040;30.218;2024-03-08T02:35:20;3.10;;;1.90;;
82410;SDS011;76378;60.040;30.218;2024-03-08T02:36:20;3.38;;;1.77;;
82410;SDS011;76378;60.040;30.218;2024-03-08T02:37:21;5.70;;;1.90;;
82410;SDS011;76378;60.040;30.218;2024-03-08T02:38:22;3.10;;;1.70;;
82410;SDS011;76378;60.040;30.218;2024-03-08T02:39:24;3.05;;;1.55;;
82410;SDS011;76378;60.040;30.218;2024-03-08T02:40:24;3.75;;;1.67;;
82410;SDS011;76378;60.040;30.218;2024-03-08T02:41:25;2.72;;;1.60;;
82410;SDS011;76378;60.040;30.218;2024-03-08T02:42:26;3.00;;;1.67;;
82410;SDS011;76378;60.040;30.218;2024-03-08T02:43:27;4.38;;;2.03;;
82410;SDS011;76378;60.040;30.218;2024-03-08T02:44:28;3.03;;;1.52;;
82410;SDS011;76378;60.040;30.218;2024-03-08T02:45:28;5.80;;;1.90;;
82410;SDS011;76378;60.040;30.218;2024-03-08T02:46:30;3.72;;;1.70;;
82410;SDS011;76378;60.040;30.218;2024-03-08T02:47:30;3.55;;;1.75;;
82410;SDS011;76378;60.040;30.218;2024-03-08T02:48:31;5.53;;;1.98;;
82410;SDS011;76378;60.040;30.218;2024-03-08T02:49:32;3.53;;;1.70;;
82410;SDS011;76378;60.040;30.218;2024-03-08T02:50:33;2.95;;;1.70;;
82410;SDS011;76378;60.040;30.218;2024-03-08T02:51:34;3.95;;;1.98;;
82410;SDS011;76378;60.040;30.218;2024-03-08T02:52:35;3.25;;;1.92;;
82410;SDS011;76378;60.040;30.218;2024-03-08T02:53:36;3.00;;;1.65;;
82410;SDS011;76378;60.040;30.218;2024-03-08T02:55:38;2.47;;;1.45;;
82410;SDS011;76378;60.040;30.218;2024-03-08T02:56:40;3.63;;;1.70;;
82410;SDS011;76378;60.040;30.218;2024-03-08T02:57:42;3.28;;;1.75;;
82410;SDS011;76378;60.040;30.218;2024-03-08T02:58:43;3.58;;;1.70;;
82410;SDS011;76378;60.040;30.218;2024-03-08T02:59:48;3.63;;;1.90;;
82410;SDS011;76378;60.040;30.218;2024-03-08T03:00:49;2.65;;;1.60;;
82410;SDS011;76378;60.040;30.218;2024-03-08T03:01:49;3.85;;;1.58;;
82410;SDS011;76378;60.040;30.218;2024-03-08T03:02:50;3.30;;;1.50;;
82410;SDS011;76378;60.040;30.218;2024-03-08T03:03:53;3.25;;;1.50;;
82410;SDS011;76378;60.040;30.218;2024-03-08T03:04:54;2.45;;;1.65;;
82410;SDS011;76378;60.040;30.218;2024-03-08T03:05:56;3.67;;;1.90;;
82410;SDS011;76378;60.040;30.218;2024-03-08T03:06:56;4.30;;;1.92;;
82410;SDS011;76378;60.040;30.218;2024-03-08T03:07:58;3.20;;;1.70;;
82410;SDS011;76378;60.040;30.218;2024-03-08T03:08:58;4.05;;;1.80;;
82410;SDS011;76378;60.040;30.218;2024-03-08T03:09:59;3.83;;;1.90;;
82410;SDS011;76378;60.040;30.218;2024-03-08T03:11:02;2.42;;;1.55;;
82410;SDS011;76378;60.040;30.218;2024-03-08T03:12:03;4.13;;;1.90;;
82410;SDS011;76378;60.040;30.218;2024-03-08T03:13:04;2.50;;;1.60;;
82410;SDS011;76378;60.040;30.218;2024-03-08T03:14:04;3.58;;;1.92;;
82410;SDS011;76378;60.040;30.218;2024-03-08T03:15:07;2.72;;;1.52;;
82410;SDS011;76378;60.040;30.218;2024-03-08T03:16:08;3.53;;;1.65;;
82410;SDS011;76378;60.040;30.218;2024-03-08T03:17:10;3.35;;;1.60;;
82410;SDS011;76378;60.040;30.218;2024-03-08T03:18:10;3.42;;;1.70;;
82410;SDS011;76378;60.040;30.218;2024-03-08T03:19:11;2.47;;;1.27;;
82410;SDS011;76378;60.040;30.218;2024-03-08T03:20:12;4.68;;;1.83;;
82410;SDS011;76378;60.040;30.218;2024-03-08T03:21:14;4.30;;;2.05;;
82410;SDS011;76378;60.040;30.218;2024-03-08T03:22:14;3.13;;;1.80;;
82410;SDS011;76378;60.040;30.218;2024-03-08T03:23:15;2.65;;;1.63;;
82410;SDS011;76378;60.040;30.218;2024-03-08T03:24:20;3.17;;;1.70;;
82410;SDS011;76378;60.040;30.218;2024-03-08T03:25:21;3.58;;;1.70;;
82410;SDS011;76378;60.040;30.218;2024-03-08T03:26:42;3.65;;;1.58;;
82410;SDS011;76378;60.040;30.218;2024-03-08T03:27:43;2.85;;;1.63;;
82410;SDS011;76378;60.040;30.218;2024-03-08T03:28:46;2.75;;;1.40;;
82410;SDS011;76378;60.040;30.218;2024-03-08T03:29:48;2.92;;;1.67;;
82410;SDS011;76378;60.040;30.218;2024-03-08T03:30:49;2.97;;;1.48;;
82410;SDS011;76378;60.040;30.218;2024-03-08T03:31:50;2.55;;;1.60;;
82410;SDS011;76378;60.040;30.218;2024-03-08T03:32:51;3.15;;;1.75;;
82410;SDS011;76378;60.040;30.218;2024-03-08T03:33:51;2.80;;;1.55;;
82410;SDS011;76378;60.040;30.218;2024-03-08T03:34:52;2.25;;;1.30;;
82410;SDS011;76378;60.040;30.218;2024-03-08T03:35:53;2.78;;;1.63;;
82410;SDS011;76378;60.040;30.218;2024-03-08T03:36:53;3.22;;;1.52;;
82410;SDS011;76378;60.040;30.218;2024-03-08T03:37:55;2.42;;;1.20;;
82410;SDS011;76378;60.040;30.218;2024-03-08T03:39:14;2.58;;;1.40;;
82410;SDS011;76378;60.040;30.218;2024-03-08T03:40:16;2.22;;;1.30;;
82410;SDS011;76378;60.040;30.218;2024-03-08T03:41:19;2.50;;;1.35;;
82410;SDS011;76378;60.040;30.218;2024-03-08T03:42:19;2.85;;;1.40;;
82410;SDS011;76378;60.040;30.218;2024-03-08T03:43:20;2.42;;;1.25;;
82410;SDS011;76378;60.040;30.218;2024-03-08T03:44:21;3.80;;;1.23;;
82410;SDS011;76378;60.040;30.218;2024-03-08T03:45:23;4.20;;;1.42;;
82410;SDS011;76378;60.040;30.218;2024-03-08T03:46:24;2.70;;;1.45;;
82410;SDS011;76378;60.040;30.218;2024-03-08T03:47:27;2.90;;;1.50;;
82410;SDS011;76378;60.040;30.218;2024-03-08T03:48:27;3.22;;;1.52;;
82410;SDS011;76378;60.040;30.218;2024-03-08T03:49:28;2.13;;;1.35;;
82410;SDS011;76378;60.040;30.218;2024-03-08T03:50:29;2.47;;;1.60;;
82410;SDS011;76378;60.040;30.218;2024-03-08T03:51:29;1.80;;;1.10;;
82410;SDS011;76378;60.040;30.218;2024-03-08T03:52:30;2.30;;;1.52;;
82410;SDS011;76378;60.040;30.218;2024-03-08T03:53:31;2.47;;;1.20;;
82410;SDS011;76378;60.040;30.218;2024-03-08T03:54:31;2.63;;;1.52;;
82410;SDS011;76378;60.040;30.218;2024-03-08T03:55:33;2.75;;;1.48;;
82410;SDS011;76378;60.040;30.218;2024-03-08T03:57:35;2.92;;;1.23;;
82410;SDS011;76378;60.040;30.218;2024-03-08T03:58:35;2.20;;;1.27;;
82410;SDS011;76378;60.040;30.218;2024-03-08T03:59:36;3.70;;;1.70;;
82410;SDS011;76378;60.040;30.218;2024-03-08T04:00:37;2.63;;;1.50;;
82410;SDS011;76378;60.040;30.218;2024-03-08T04:01:41;3.22;;;1.60;;
82410;SDS011;76378;60.040;30.218;2024-03-08T04:02:42;2.33;;;1.17;;
82410;SDS011;76378;60.040;30.218;2024-03-08T04:03:43;2.75;;;1.48;;
82410;SDS011;76378;60.040;30.218;2024-03-08T04:04:43;3.08;;;1.67;;
82410;SDS011;76378;60.040;30.218;2024-03-08T04:05:46;2.83;;;1.40;;
82410;SDS011;76378;60.040;30.218;2024-03-08T04:06:46;2.92;;;1.50;;
82410;SDS011;76378;60.040;30.218;2024-03-08T04:07:47;3.03;;;1.35;;
82410;SDS011;76378;60.040;30.218;2024-03-08T04:08:48;2.22;;;1.23;;
82410;SDS011;76378;60.040;30.218;2024-03-08T04:09:48;1.58;;;1.02;;
82410;SDS011;76378;60.040;30.218;2024-03-08T04:10:50;1.88;;;1.17;;
82410;SDS011;76378;60.040;30.218;2024-03-08T04:11:51;2.70;;;1.60;;
82410;SDS011;76378;60.040;30.218;2024-03-08T04:12:53;3.15;;;1.40;;
82410;SDS011;76378;60.040;30.218;2024-03-08T04:13:53;2.53;;;1.40;;
82410;SDS011;76378;60.040;30.218;2024-03-08T04:14:54;3.60;;;1.60;;
82410;SDS011;76378;60.040;30.218;2024-03-08T04:15:55;2.65;;;1.30;;
82410;SDS011;76378;60.040;30.218;2024-03-08T04:16:56;2.05;;;1.20;;
82410;SDS011;76378;60.040;30.218;2024-03-08T04:17:56;1.70;;;1.10;;
82410;SDS011;76378;60.040;30.218;2024-03-08T04:18:57;2.60;;;1.42;;
82410;SDS011;76378;60.040;30.218;2024-03-08T04:20:59;2.50;;;1.27;;
82410;SDS011;76378;60.040;30.218;2024-03-08T04:21:59;1.92;;;1.17;;
82410;SDS011;76378;60.040;30.218;2024-03-08T04:23:01;2.33;;;1.40;;
82410;SDS011;76378;60.040;30.218;2024-03-08T04:24:02;2.15;;;1.45;;
82410;SDS011;76378;60.040;30.218;2024-03-08T04:25:03;3.38;;;1.70;;
82410;SDS011;76378;60.040;30.218;2024-03-08T04:26:04;2.47;;;1.33;;
82410;SDS011;76378;60.040;30.218;2024-03-08T04:27:06;2.22;;;1.30;;
82410;SDS011;76378;60.040;30.218;2024-03-08T04:28:07;2.40;;;1.30;;
82410;SDS011;76378;60.040;30.218;2024-03-08T04:29:11;2.60;;;1.45;;
82410;SDS011;76378;60.040;30.218;2024-03-08T04:30:14;2.65;;;1.27;;
82410;SDS011;76378;60.040;30.218;2024-03-08T04:31:15;2.33;;;1.30;;
82410;SDS011;76378;60.040;30.218;2024-03-08T04:32:15;2.22;;;1.48;;
82410;SDS011;76378;60.040;30.218;2024-03-08T04:33:16;2.05;;;1.20;;
82410;SDS011;76378;60.040;30.218;2024-03-08T04:34:18;1.67;;;1.13;;
82410;SDS011;76378;60.040;30.218;2024-03-08T04:35:18;3.70;;;1.60;;
82410;SDS011;76378;60.040;30.218;2024-03-08T04:36:20;2.10;;;1.40;;
82410;SDS011;76378;60.040;30.218;2024-03-08T04:37:21;3.05;;;1.60;;
82410;SDS011;76378;60.040;30.218;2024-03-08T04:38:22;2.25;;;1.30;;
82410;SDS011;76378;60.040;30.218;2024-03-08T04:39:22;3.03;;;1.40;;
82410;SDS011;76378;60.040;30.218;2024-03-08T04:40:23;3.25;;;1.20;;
82410;SDS011;76378;60.040;30.218;2024-03-08T04:41:24;3.05;;;1.52;;
82410;SDS011;76378;60.040;30.218;2024-03-08T04:42:24;2.80;;;1.50;;
82410;SDS011;76378;60.040;30.218;2024-03-08T04:43:26;2.10;;;1.40;;
82410;SDS011;76378;60.040;30.218;2024-03-08T04:44:26;1.58;;;1.17;;
82410;SDS011;76378;60.040;30.218;2024-03-08T04:45:27;2.38;;;1.40;;
82410;SDS011;76378;60.040;30.218;2024-03-08T04:46:28;3.55;;;1.38;;
82410;SDS011;76378;60.040;30.218;2024-03-08T04:47:28;2.85;;;1.40;;
82410;SDS011;76378;60.040;30.218;2024-03-08T04:48:29;2.17;;;1.20;;
82410;SDS011;76378;60.040;30.218;2024-03-08T04:49:30;1.92;;;1.05;;
82410;SDS011;76378;60.040;30.218;2024-03-08T04:50:30;2.47;;;1.15;;
82410;SDS011;76378;60.040;30.218;2024-03-08T04:51:31;2.28;;;1.20;;
82410;SDS011;76378;60.040;30.218;2024-03-08T04:52:31;2.80;;;1.33;;
82410;SDS011;76378;60.040;30.218;2024-03-08T04:53:32;2.40;;;1.25;;
82410;SDS011;76378;60.040;30.218;2024-03-08T04:54:34;2.63;;;1.23;;
82410;SDS011;76378;60.040;30.218;2024-03-08T04:55:34;2.25;;;1.42;;
82410;SDS011;76378;60.040;30.218;2024-03-08T04:56:35;1.52;;;1.00;;
82410;SDS011;76378;60.040;30.218;2024-03-08T04:57:36;3.20;;;1.45;;
82410;SDS011;76378;60.040;30.218;2024-03-08T04:58:36;2.72;;;1.65;;
82410;SDS011;76378;60.040;30.218;2024-03-08T04:59:37;2.22;;;1.40;;
82410;SDS011;76378;60.040;30.218;2024-03-08T05:00:38;2.65;;;1.30;;
82410;SDS011;76378;60.040;30.218;2024-03-08T05:01:38;2.65;;;1.50;;
82410;SDS011;76378;60.040;30.218;2024-03-08T05:02:40;3.17;;;1.55;;
82410;SDS011;76378;60.040;30.218;2024-03-08T05:03:41;1.33;;;0.90;;
82410;SDS011;76378;60.040;30.218;2024-03-08T05:04:42;2.30;;;1.50;;
82410;SDS011;76378;60.040;30.218;2024-03-08T05:05:42;1.70;;;1.10;;
82410;SDS011;76378;60.040;30.218;2024-03-08T05:06:43;2.97;;;1.60;;
82410;SDS011;76378;60.040;30.218;2024-03-08T05:07:43;2.30;;;1.33;;
82410;SDS011;76378;60.040;30.218;2024-03-08T05:08:45;2.28;;;1.48;;
82410;SDS011;76378;60.040;30.218;2024-03-08T05:09:46;2.75;;;1.35;;
82410;SDS011;76378;60.040;30.218;2024-03-08T05:10:51;2.65;;;1.50;;
82410;SDS011;76378;60.040;30.218;2024-03-08T05:11:52;3.05;;;1.60;;
82410;SDS011;76378;60.040;30.218;2024-03-08T05:12:52;2.65;;;1.55;;
82410;SDS011;76378;60.040;30.218;2024-03-08T05:13:53;2.50;;;1.02;;
82410;SDS011;76378;60.040;30.218;2024-03-08T05:14:53;2.30;;;1.40;;
82410;SDS011;76378;60.040;30.218;2024-03-08T05:15:54;1.52;;;1.10;;
82410;SDS011;76378;60.040;30.218;2024-03-08T05:16:58;2.80;;;1.30;;
82410;SDS011;76378;60.040;30.218;2024-03-08T05:17:58;1.92;;;1.20;;
82410;SDS011;76378;60.040;30.218;2024-03-08T05:18:59;2.40;;;1.35;;
82410;SDS011;76378;60.040;30.218;2024-03-08T05:20:00;2.92;;;1.50;;
82410;SDS011;76378;60.040;30.218;2024-03-08T05:21:01;2.85;;;1.60;;
82410;SDS011;76378;60.040;30.218;2024-03-08T05:22:03;3.15;;;1.42;;
82410;SDS011;76378;60.040;30.218;2024-03-08T05:23:04;2.42;;;1.30;;
82410;SDS011;76378;60.040;30.218;2024-03-08T05:24:05;3.53;;;1.30;;
82410;SDS011;76378;60.040;30.218;2024-03-08T05:25:06;4.00;;;1.80;;
82410;SDS011;76378;60.040;30.218;2024-03-08T05:26:08;2.63;;;1.45;;
82410;SDS011;76378;60.040;30.218;2024-03-08T05:27:09;3.00;;;1.50;;
82410;SDS011;76378;60.040;30.218;2024-03-08T05:28:09;2.80;;;1.77;;
82410;SDS011;76378;60.040;30.218;2024-03-08T05:29:10;2.63;;;1.48;;
82410;SDS011;76378;60.040;30.218;2024-03-08T05:30:11;2.63;;;1.30;;
82410;SDS011;76378;60.040;30.218;2024-03-08T05:31:21;3.50;;;1.70;;
82410;SDS011;76378;60.040;30.218;2024-03-08T05:32:24;2.90;;;1.60;;
82410;SDS011;76378;60.040;30.218;2024-03-08T05:33:25;2.85;;;1.70;;
82410;SDS011;76378;60.040;30.218;2024-03-08T05:34:25;3.13;;;1.58;;
82410;SDS011;76378;60.040;30.218;2024-03-08T05:35:28;3.75;;;1.50;;
82410;SDS011;76378;60.040;30.218;2024-03-08T05:36:29;4.18;;;1.38;;
82410;SDS011;76378;60.040;30.218;2024-03-08T05:37:30;4.18;;;1.50;;
82410;SDS011;76378;60.040;30.218;2024-03-08T05:39:31;2.53;;;1.30;;
82410;SDS011;76378;60.040;30.218;2024-03-08T05:40:32;1.90;;;1.35;;
82410;SDS011;76378;60.040;30.218;2024-03-08T05:41:33;2.97;;;1.50;;
82410;SDS011;76378;60.040;30.218;2024-03-08T05:42:34;2.08;;;1.20;;
82410;SDS011;76378;60.040;30.218;2024-03-08T05:43:36;2.78;;;1.20;;
82410;SDS011;76378;60.040;30.218;2024-03-08T05:44:37;2.83;;;1.40;;
82410;SDS011;76378;60.040;30.218;2024-03-08T05:45:40;1.95;;;1.20;;
82410;SDS011;76378;60.040;30.218;2024-03-08T05:46:41;3.80;;;1.40;;
82410;SDS011;76378;60.040;30.218;2024-03-08T05:47:41;2.45;;;1.33;;
82410;SDS011;76378;60.040;30.218;2024-03-08T05:48:42;2.17;;;1.10;;
82410;SDS011;76378;60.040;30.218;2024-03-08T05:49:42;2.08;;;1.15;;
82410;SDS011;76378;60.040;30.218;2024-03-08T05:50:44;3.22;;;1.50;;
82410;SDS011;76378;60.040;30.218;2024-03-08T05:51:45;2.10;;;1.23;;
82410;SDS011;76378;60.040;30.218;2024-03-08T05:52:47;3.25;;;1.38;;
82410;SDS011;76378;60.040;30.218;2024-03-08T05:53:48;2.28;;;1.33;;
82410;SDS011;76378;60.040;30.218;2024-03-08T05:54:48;2.20;;;1.20;;
82410;SDS011;76378;60.040;30.218;2024-03-08T05:55:49;3.80;;;1.70;;
82410;SDS011;76378;60.040;30.218;2024-03-08T05:56:49;2.03;;;1.17;;
82410;SDS011;76378;60.040;30.218;2024-03-08T05:57:52;2.30;;;1.40;;
82410;SDS011;76378;60.040;30.218;2024-03-08T05:58:54;3.20;;;1.40;;
82410;SDS011;76378;60.040;30.218;2024-03-08T05:59:54;2.78;;;1.30;;
82410;SDS011;76378;60.040;30.218;2024-03-08T06:00:55;2.92;;;1.48;;
82410;SDS011;76378;60.040;30.218;2024-03-08T06:01:56;3.50;;;1.65;;
82410;SDS011;76378;60.040;30.218;2024-03-08T06:02:57;2.60;;;1.40;;
82410;SDS011;76378;60.040;30.218;2024-03-08T06:03:58;2.33;;;1.30;;
82410;SDS011;76378;60.040;30.218;2024-03-08T06:04:59;2.30;;;1.40;;
82410;SDS011;76378;60.040;30.218;2024-03-08T06:06:02;1.98;;;1.17;;
82410;SDS011;76378;60.040;30.218;2024-03-08T06:07:02;2.28;;;1.25;;
82410;SDS011;76378;60.040;30.218;2024-03-08T06:08:03;2.50;;;1.50;;
82410;SDS011;76378;60.040;30.218;2024-03-08T06:09:04;1.85;;;1.02;;
82410;SDS011;76378;60.040;30.218;2024-03-08T06:10:17;2.97;;;1.35;;
82410;SDS011;76378;60.040;30.218;2024-03-08T06:11:18;2.70;;;1.25;;
82410;SDS011;76378;60.040;30.218;2024-03-08T06:12:20;3.08;;;1.15;;